createdAt,value
2022-10-15T00:01:49.333Z,18.70
2022-10-15T00:04:16.938Z,15.60
2022-10-15T00:06:44.478Z,14.77
2022-10-15T00:09:11.976Z,16.77
2022-10-15T00:11:40.314Z,17.13
2022-10-15T00:14:07.845Z,16.03
2022-10-15T00:16:35.352Z,18.30
2022-10-15T00:19:04.284Z,15.33
2022-10-15T00:21:31.785Z,17.33
2022-10-15T00:23:59.440Z,17.80
2022-10-15T00:26:28.638Z,18.17
2022-10-15T00:28:58.681Z,17.93
2022-10-15T00:31:28.046Z,18.00
2022-10-15T00:33:57.530Z,18.77
2022-10-15T00:36:28.461Z,20.03
2022-10-15T00:38:56.459Z,19.90
2022-10-15T00:41:26.365Z,20.83
2022-10-15T00:43:55.592Z,21.20
2022-10-15T00:46:25.375Z,20.87
2022-10-15T00:48:56.928Z,19.40
2022-10-15T00:51:30.649Z,25.13
2022-10-15T00:53:59.893Z,21.20
2022-10-15T00:56:28.606Z,25.73
2022-10-15T00:58:57.043Z,29.13
2022-10-15T01:01:25.670Z,25.07
2022-10-15T01:03:53.638Z,25.93
2022-10-15T01:06:21.843Z,23.27
2022-10-15T01:08:50.803Z,24.30
2022-10-15T01:11:36.002Z,28.10
2022-10-15T01:14:12.698Z,29.63
2022-10-15T01:16:45.613Z,32.57
2022-10-15T01:19:26.905Z,26.40
2022-10-15T01:22:01.599Z,30.50
2022-10-15T01:24:56.103Z,31.57
2022-10-15T01:27:33.904Z,32.03
2022-10-15T01:30:24.668Z,34.47
2022-10-15T01:33:16.936Z,34.60
2022-10-15T01:35:50.767Z,33.23
2022-10-15T01:38:26.093Z,33.57
2022-10-15T01:40:57.562Z,31.57
2022-10-15T01:43:29.998Z,35.80
2022-10-15T01:46:20.973Z,33.17
2022-10-15T01:49:01.453Z,34.33
2022-10-15T01:51:29.281Z,35.60
2022-10-15T01:53:58.831Z,32.53
2022-10-15T01:56:27.452Z,32.30
2022-10-15T01:58:56.713Z,33.00
2022-10-15T02:01:25.825Z,36.03
2022-10-15T02:03:54.620Z,35.87
2022-10-15T02:06:25.190Z,36.13
2022-10-15T02:09:03.016Z,30.70
2022-10-15T02:11:33.702Z,34.20
2022-10-15T02:14:04.822Z,33.93
2022-10-15T02:16:39.491Z,37.77
2022-10-15T02:19:09.118Z,33.77
2022-10-15T02:21:40.161Z,36.20
2022-10-15T02:24:11.644Z,43.27
2022-10-15T02:26:40.477Z,37.00
2022-10-15T02:29:11.827Z,36.93
2022-10-15T02:31:43.624Z,35.47
2022-10-15T02:34:14.217Z,39.40
2022-10-15T02:36:42.571Z,37.10
2022-10-15T02:39:13.094Z,37.50
2022-10-15T02:41:40.845Z,38.47
2022-10-15T02:44:11.396Z,37.80
2022-10-15T02:46:39.299Z,39.40
2022-10-15T02:49:08.252Z,35.50
2022-10-15T02:51:36.761Z,40.80
2022-10-15T02:54:05.932Z,44.33
2022-10-15T02:56:33.553Z,36.70
2022-10-15T02:59:01.165Z,36.83
2022-10-15T03:01:30.570Z,42.23
2022-10-15T03:03:58.183Z,39.00
2022-10-15T03:06:28.789Z,38.17
2022-10-15T03:08:56.843Z,37.47
2022-10-15T03:11:25.361Z,35.70
2022-10-15T03:13:52.970Z,40.33
2022-10-15T03:16:22.335Z,35.33
2022-10-15T03:18:50.273Z,39.83
2022-10-15T03:21:19.692Z,37.93
2022-10-15T03:23:49.178Z,37.93
2022-10-15T03:26:23.635Z,34.17
2022-10-15T03:28:51.416Z,34.40
2022-10-15T03:31:32.132Z,31.53
2022-10-15T03:34:02.331Z,31.90
2022-10-15T03:36:30.873Z,34.37
2022-10-15T03:39:00.794Z,29.07
2022-10-15T03:41:28.746Z,28.80
2022-10-15T03:43:56.470Z,28.87
2022-10-15T03:46:25.147Z,24.33
2022-10-15T03:48:53.444Z,26.23
2022-10-15T03:51:24.540Z,33.40
2022-10-15T03:54:01.192Z,28.13
2022-10-15T03:56:28.942Z,27.97
2022-10-15T03:59:11.148Z,35.50
2022-10-15T04:01:38.821Z,35.67
2022-10-15T04:04:06.907Z,32.80
2022-10-15T04:06:35.002Z,31.83
2022-10-15T04:09:08.530Z,32.10
2022-10-15T04:11:36.119Z,35.73
2022-10-15T04:14:04.811Z,35.30
2022-10-15T04:16:33.827Z,35.93
2022-10-15T04:19:08.766Z,36.43
2022-10-15T04:21:38.873Z,33.60
2022-10-15T04:24:08.958Z,34.23
2022-10-15T04:26:39.917Z,36.70
2022-10-15T04:29:07.832Z,33.97
2022-10-15T04:31:37.495Z,33.03
2022-10-15T04:34:11.366Z,30.50
2022-10-15T04:36:40.607Z,44.37
2022-10-15T04:39:15.611Z,33.90
2022-10-15T04:41:44.843Z,30.97
2022-10-15T04:44:32.472Z,35.93
2022-10-15T04:47:00.236Z,37.50
2022-10-15T04:49:35.588Z,36.40
2022-10-15T04:52:08.969Z,37.53
2022-10-15T04:54:51.879Z,39.03
2022-10-15T04:57:19.519Z,35.97
2022-10-15T04:59:47.129Z,41.97
2022-10-15T05:02:29.053Z,39.60
2022-10-15T05:05:10.317Z,43.40
2022-10-15T05:07:47.827Z,50.40
2022-10-15T05:10:17.700Z,46.57
2022-10-15T05:12:47.225Z,54.43
2022-10-15T05:15:18.421Z,40.87
2022-10-15T05:17:46.025Z,40.93
2022-10-15T05:20:13.602Z,43.67
2022-10-15T05:22:41.265Z,51.47
2022-10-15T05:25:09.673Z,47.67
2022-10-15T05:27:40.131Z,51.93
2022-10-15T05:30:08.520Z,45.50
2022-10-15T05:32:42.296Z,47.40
2022-10-15T05:35:13.001Z,57.50
2022-10-15T05:37:55.659Z,50.87
2022-10-15T05:40:24.277Z,53.67
2022-10-15T05:43:05.097Z,50.17
2022-10-15T05:45:32.698Z,47.47
2022-10-15T05:48:05.725Z,44.60
2022-10-15T05:50:33.257Z,45.83
2022-10-15T05:53:03.081Z,53.90
2022-10-15T05:55:41.058Z,47.43
2022-10-15T05:58:09.998Z,46.13
2022-10-15T06:00:39.459Z,48.63
2022-10-15T06:03:07.019Z,45.90
2022-10-15T06:05:34.600Z,48.03
2022-10-15T06:08:02.185Z,46.83
2022-10-15T06:10:29.729Z,50.03
2022-10-15T06:12:57.482Z,41.77
2022-10-15T06:15:26.407Z,46.67
2022-10-15T06:17:54.584Z,45.30
2022-10-15T06:20:22.302Z,47.87
2022-10-15T06:22:49.959Z,48.50
2022-10-15T06:25:17.808Z,56.10
2022-10-15T06:27:45.372Z,48.63
2022-10-15T06:30:12.979Z,51.77
2022-10-15T06:32:48.250Z,46.47
2022-10-15T06:35:15.791Z,45.13
2022-10-15T06:37:43.366Z,52.63
2022-10-15T06:40:11.840Z,47.70
2022-10-15T06:42:43.075Z,46.37
2022-10-15T06:45:11.902Z,50.60
2022-10-15T06:47:42.557Z,54.23
2022-10-15T06:50:10.510Z,52.13
2022-10-15T06:52:38.201Z,46.10
2022-10-15T06:55:06.404Z,50.47
2022-10-15T06:57:34.242Z,46.30
2022-10-15T07:00:01.786Z,50.33
2022-10-15T07:02:29.738Z,55.17
2022-10-15T07:05:00.280Z,53.47
2022-10-15T07:07:27.889Z,44.40
2022-10-15T07:09:55.431Z,49.43
2022-10-15T07:12:23.261Z,52.50
2022-10-15T07:14:50.973Z,47.03
2022-10-15T07:17:18.565Z,49.73
2022-10-15T07:19:46.112Z,67.43
2022-10-15T07:22:15.067Z,54.97
2022-10-15T07:24:42.700Z,47.90
2022-10-15T07:27:18.655Z,46.67
2022-10-15T07:29:46.967Z,48.50
2022-10-15T07:32:14.583Z,46.87
2022-10-15T07:34:42.149Z,39.30
2022-10-15T07:37:09.799Z,46.87
2022-10-15T07:39:40.806Z,44.20
2022-10-15T07:42:09.308Z,42.77
2022-10-15T07:44:36.910Z,45.33
2022-10-15T07:47:07.717Z,45.33
2022-10-15T07:49:35.316Z,42.17
2022-10-15T07:52:02.823Z,44.20
2022-10-15T07:54:30.373Z,47.90
2022-10-15T07:56:59.260Z,42.60
2022-10-15T07:59:26.866Z,43.03
2022-10-15T08:01:54.676Z,42.83
2022-10-15T08:04:22.201Z,40.10
2022-10-15T08:06:50.244Z,44.13
2022-10-15T08:09:18.236Z,33.77
2022-10-15T08:11:45.867Z,37.17
2022-10-15T08:14:19.751Z,40.47
2022-10-15T08:16:47.413Z,38.23
2022-10-15T08:19:17.622Z,36.57
2022-10-15T08:21:47.465Z,33.10
2022-10-15T08:24:15.771Z,36.63
2022-10-15T08:26:43.446Z,36.60
2022-10-15T08:29:11.513Z,37.03
2022-10-15T08:31:41.046Z,47.60
2022-10-15T08:34:09.343Z,35.07
2022-10-15T08:36:37.518Z,34.67
2022-10-15T08:39:07.245Z,38.30
2022-10-15T08:41:38.876Z,35.07
2022-10-15T08:44:07.449Z,34.77
2022-10-15T08:46:37.243Z,38.87
2022-10-15T08:49:06.722Z,33.13
2022-10-15T08:51:40.527Z,33.90
2022-10-15T08:54:12.322Z,34.17
2022-10-15T08:56:41.879Z,31.47
2022-10-15T08:59:18.568Z,32.50
2022-10-15T09:01:52.097Z,31.23
2022-10-15T09:07:05.464Z,34.37
2022-10-15T09:09:38.354Z,34.73
2022-10-15T09:12:13.384Z,26.60
2022-10-15T09:14:43.680Z,31.97
2022-10-15T09:17:18.414Z,31.87
2022-10-15T09:19:51.306Z,32.93
2022-10-15T09:22:25.210Z,32.77
2022-10-15T09:24:52.841Z,30.93
2022-10-15T09:27:26.545Z,29.43
2022-10-15T09:29:59.407Z,32.70
2022-10-15T09:32:33.338Z,35.30
2022-10-15T09:35:07.507Z,27.50
2022-10-15T09:37:40.266Z,32.37
2022-10-15T09:40:28.342Z,29.37
2022-10-15T09:42:58.267Z,30.40
2022-10-15T09:45:25.846Z,30.20
2022-10-15T09:47:55.874Z,25.10
2022-10-15T09:50:26.068Z,30.80
2022-10-15T09:53:08.257Z,28.40
2022-10-15T09:55:39.962Z,29.40
2022-10-15T09:58:11.949Z,31.27
2022-10-15T10:01:05.011Z,26.87
2022-10-15T10:03:37.233Z,32.60
2022-10-15T10:06:08.549Z,30.67
2022-10-15T10:08:51.524Z,30.43
2022-10-15T10:11:19.795Z,29.83
2022-10-15T10:13:52.506Z,23.83
2022-10-15T10:16:21.478Z,31.53
2022-10-15T10:19:04.411Z,25.90
2022-10-15T10:21:35.347Z,28.33
2022-10-15T10:24:23.297Z,23.70
2022-10-15T10:26:51.127Z,28.13
2022-10-15T10:29:33.477Z,29.03
2022-10-15T10:32:11.352Z,23.83
2022-10-15T10:34:38.887Z,23.67
2022-10-15T10:37:10.095Z,18.73
2022-10-15T10:39:37.675Z,19.67
2022-10-15T10:42:06.419Z,19.20
2022-10-15T10:44:35.110Z,21.47
2022-10-15T10:47:05.051Z,27.90
2022-10-15T10:49:33.607Z,19.33
2022-10-15T10:52:01.236Z,22.73
2022-10-15T10:54:30.792Z,25.20
2022-10-15T10:57:01.438Z,15.63
2022-10-15T10:59:34.411Z,21.13
2022-10-15T11:02:04.177Z,21.67
2022-10-15T11:04:34.375Z,22.37
2022-10-15T11:07:04.459Z,19.87
2022-10-15T11:09:53.764Z,18.23
2022-10-15T11:12:57.078Z,20.57
2022-10-15T11:15:41.738Z,15.63
2022-10-15T11:18:21.799Z,17.80
2022-10-15T11:20:59.816Z,13.83
2022-10-15T11:23:41.615Z,14.67
2022-10-15T11:26:22.018Z,19.27
2022-10-15T11:28:59.435Z,10.73
2022-10-15T11:31:37.075Z,10.40
2022-10-15T11:34:23.109Z,14.07
2022-10-15T11:37:01.151Z,12.07
2022-10-15T11:39:39.096Z,10.57
2022-10-15T11:42:14.304Z,10.63
2022-10-15T11:44:57.344Z,12.53
2022-10-15T11:47:35.679Z,10.97
2022-10-15T11:50:14.735Z,11.63
2022-10-15T11:52:54.566Z,8.60
2022-10-15T11:55:25.396Z,8.93
2022-10-15T11:57:59.989Z,15.03
2022-10-15T12:00:33.089Z,9.40
2022-10-15T12:03:05.293Z,10.30
2022-10-15T12:05:35.151Z,9.03
2022-10-15T12:10:47.230Z,6.93
2022-10-15T12:13:20.454Z,14.53
2022-10-15T12:15:51.840Z,7.43
2022-10-15T12:18:24.186Z,4.30
2022-10-15T12:20:55.177Z,9.30
2022-10-15T12:23:27.989Z,9.37
2022-10-15T12:25:56.087Z,3.70
2022-10-15T12:28:28.326Z,6.10
2022-10-15T12:30:58.580Z,7.90
2022-10-15T12:33:31.178Z,5.33
2022-10-15T12:36:00.711Z,9.43
2022-10-15T12:38:31.333Z,8.40
2022-10-15T12:41:05.348Z,8.80
2022-10-15T12:43:36.129Z,9.43
2022-10-15T12:46:04.801Z,6.87
2022-10-15T12:48:36.642Z,9.47
2022-10-15T12:51:32.459Z,8.27
2022-10-15T12:54:01.007Z,5.53
2022-10-15T12:56:40.030Z,7.40
2022-10-15T12:59:29.545Z,6.43
2022-10-15T13:02:01.163Z,7.10
2022-10-15T13:04:38.632Z,11.17
2022-10-15T13:07:07.134Z,5.90
2022-10-15T13:09:34.802Z,4.53
2022-10-15T13:12:03.358Z,7.40
2022-10-15T13:14:39.353Z,4.70
2022-10-15T13:17:15.398Z,7.20
2022-10-15T13:19:49.919Z,8.00
2022-10-15T13:22:23.624Z,12.50
2022-10-15T13:24:51.780Z,7.70
2022-10-15T13:27:24.907Z,13.73
2022-10-15T13:30:01.357Z,5.37
2022-10-15T13:32:32.419Z,7.33
2022-10-15T13:35:01.967Z,9.27
2022-10-15T13:37:32.948Z,9.23
2022-10-15T13:40:04.708Z,9.00
2022-10-15T13:42:38.614Z,8.17
2022-10-15T13:45:18.764Z,9.00
2022-10-15T13:47:49.773Z,9.60
2022-10-15T13:50:23.812Z,11.40
2022-10-15T13:53:03.828Z,7.93
2022-10-15T13:55:38.383Z,8.50
2022-10-15T13:58:15.123Z,7.50
2022-10-15T14:00:44.682Z,9.77
2022-10-15T14:03:22.185Z,9.80
2022-10-15T14:05:52.394Z,10.50
2022-10-15T14:08:27.311Z,12.50
2022-10-15T14:10:56.519Z,12.07
2022-10-15T14:13:24.707Z,10.20
2022-10-15T14:18:34.637Z,12.17
2022-10-15T14:21:12.627Z,12.70
2022-10-15T14:27:34.454Z,11.97
2022-10-15T14:30:55.762Z,13.83
2022-10-15T14:41:35.961Z,14.30
2022-10-15T14:44:16.669Z,13.70
2022-10-15T14:46:46.683Z,13.33
2022-10-15T14:52:55.044Z,16.80
2022-10-15T14:55:49.417Z,21.20
2022-10-15T14:58:59.629Z,19.33
2022-10-15T15:02:16.759Z,18.10
2022-10-15T15:05:22.568Z,15.20
2022-10-15T15:07:54.970Z,15.90
2022-10-15T15:10:25.123Z,15.23
2022-10-15T15:12:57.832Z,15.00
2022-10-15T15:15:30.311Z,15.33
2022-10-15T15:18:06.446Z,13.77
2022-10-15T15:20:41.163Z,14.57
2022-10-15T15:23:18.256Z,15.33
2022-10-15T15:26:13.303Z,15.43
2022-10-15T15:32:19.133Z,15.23
2022-10-15T15:35:12.041Z,15.10
2022-10-15T15:42:06.510Z,18.97
2022-10-15T15:49:07.525Z,14.47
2022-10-15T15:51:59.200Z,23.20
2022-10-15T15:58:53.936Z,16.40
2022-10-15T16:01:21.878Z,18.53
2022-10-15T16:03:49.663Z,15.87
2022-10-15T16:06:17.292Z,20.13
2022-10-15T16:08:44.864Z,21.60
2022-10-15T16:11:12.533Z,16.97
2022-10-15T16:13:43.011Z,18.73
2022-10-15T16:16:12.549Z,18.53
2022-10-15T16:18:40.211Z,18.03
2022-10-15T16:21:07.887Z,16.80
2022-10-15T16:23:35.715Z,16.87
2022-10-15T16:26:03.320Z,22.57
2022-10-15T16:28:31.118Z,18.30
2022-10-15T16:31:18.619Z,20.03
2022-10-15T16:33:46.612Z,17.30
2022-10-15T16:36:15.048Z,15.30
2022-10-15T16:38:43.757Z,18.53
2022-10-15T16:41:14.718Z,18.40
2022-10-15T16:43:42.711Z,18.87
2022-10-15T16:46:10.420Z,16.17
2022-10-15T16:48:39.596Z,17.43
2022-10-15T16:51:08.948Z,17.60
2022-10-15T16:53:37.672Z,16.07
2022-10-15T16:56:07.312Z,16.30
2022-10-15T16:58:35.792Z,16.27
2022-10-15T17:01:05.429Z,14.13
2022-10-15T17:03:37.426Z,19.00
2022-10-15T17:06:07.886Z,15.50
2022-10-15T17:08:38.295Z,14.40
2022-10-15T17:11:09.869Z,18.07
2022-10-15T17:13:37.483Z,11.93
2022-10-15T17:16:09.662Z,11.30
2022-10-15T17:18:37.387Z,12.67
2022-10-15T17:21:09.181Z,12.80
2022-10-15T17:23:39.412Z,12.30
2022-10-15T17:26:10.525Z,11.10
2022-10-15T17:28:38.307Z,13.43
2022-10-15T17:31:08.124Z,10.73
2022-10-15T17:33:37.215Z,12.47
2022-10-15T17:36:08.664Z,14.77
2022-10-15T17:38:36.468Z,11.70
2022-10-15T17:41:07.504Z,13.77
2022-10-15T17:43:39.256Z,13.10
2022-10-15T17:46:11.861Z,10.17
2022-10-15T17:48:39.862Z,11.63
2022-10-15T17:51:13.192Z,11.10
2022-10-15T17:53:41.066Z,12.43
2022-10-15T17:56:13.115Z,13.57
2022-10-15T17:58:41.071Z,13.73
2022-10-15T18:01:13.477Z,16.10
2022-10-15T18:03:42.186Z,12.17
2022-10-15T18:06:13.093Z,12.27
2022-10-15T18:08:41.759Z,10.40
2022-10-15T18:11:10.195Z,13.60
2022-10-15T18:13:40.810Z,12.73
2022-10-15T18:16:08.823Z,12.43
2022-10-15T18:18:36.605Z,10.57
2022-10-15T18:21:10.171Z,18.40
2022-10-15T18:23:40.101Z,9.10
2022-10-15T18:26:09.991Z,14.90
2022-10-15T18:28:38.124Z,11.83
2022-10-15T18:31:07.868Z,9.37
2022-10-15T18:33:39.833Z,13.57
2022-10-15T18:36:08.820Z,12.27
2022-10-15T18:38:36.559Z,8.80
2022-10-15T18:41:13.325Z,10.20
2022-10-15T18:43:40.925Z,11.30
2022-10-15T18:46:08.705Z,14.27
2022-10-15T18:48:37.761Z,9.83
2022-10-15T18:51:09.926Z,10.83
2022-10-15T18:53:37.783Z,11.40
2022-10-15T18:56:07.878Z,8.23
2022-10-15T18:58:35.689Z,11.17
2022-10-15T19:01:14.397Z,9.43
2022-10-15T19:03:42.099Z,8.00
2022-10-15T19:06:10.406Z,8.93
2022-10-15T19:08:37.930Z,8.90
2022-10-15T19:11:08.669Z,10.30
2022-10-15T19:13:36.369Z,8.80
2022-10-15T19:16:04.415Z,7.63
2022-10-15T19:18:32.769Z,8.60
2022-10-15T19:21:00.411Z,9.40
2022-10-15T19:23:28.009Z,7.73
2022-10-15T19:25:57.729Z,8.00
2022-10-15T19:28:27.510Z,8.83
2022-10-15T19:30:56.453Z,8.40
2022-10-15T19:33:24.283Z,7.20
2022-10-15T19:35:51.918Z,7.43
2022-10-15T19:38:19.674Z,7.50
2022-10-15T19:40:49.446Z,8.40
2022-10-15T19:43:18.799Z,7.00
2022-10-15T19:45:48.445Z,6.63
2022-10-15T19:48:18.144Z,5.93
2022-10-15T19:50:46.863Z,8.07
2022-10-15T19:53:17.084Z,9.00
2022-10-15T19:55:45.158Z,7.60
2022-10-15T19:58:12.818Z,6.63
2022-10-15T20:00:40.551Z,8.33
2022-10-15T20:03:09.628Z,6.77
2022-10-15T20:05:37.280Z,7.20
2022-10-15T20:08:04.887Z,8.17
2022-10-15T20:10:32.802Z,7.47
2022-10-15T20:13:00.532Z,7.37
2022-10-15T20:15:28.201Z,7.50
2022-10-15T20:17:55.770Z,7.30
2022-10-15T20:20:24.796Z,9.10
2022-10-15T20:22:52.446Z,10.50
2022-10-15T20:25:20.193Z,8.30
2022-10-15T20:27:47.856Z,8.10
2022-10-15T20:30:15.676Z,9.20
2022-10-15T20:32:43.769Z,7.20
2022-10-15T20:35:11.380Z,9.90
2022-10-15T20:37:40.983Z,8.83
2022-10-15T20:40:10.119Z,9.17
2022-10-15T20:42:38.105Z,9.70
2022-10-15T20:45:05.789Z,11.23
2022-10-15T20:47:34.338Z,9.43
2022-10-15T20:50:04.025Z,9.53
2022-10-15T20:52:31.891Z,9.53
2022-10-15T20:55:00.959Z,9.07
2022-10-15T20:57:28.559Z,10.37
2022-10-15T20:59:56.553Z,9.10
2022-10-15T21:02:24.657Z,10.80
2022-10-15T21:04:53.421Z,9.33
2022-10-15T21:09:54.143Z,9.80
2022-10-15T21:12:23.903Z,10.60
2022-10-15T21:14:51.854Z,10.97
2022-10-15T21:17:19.450Z,11.60
2022-10-15T21:19:50.341Z,10.60
2022-10-15T21:22:20.358Z,12.13
2022-10-15T21:24:47.903Z,12.87
2022-10-15T21:27:15.492Z,11.10
2022-10-15T21:29:45.449Z,12.30
2022-10-15T21:32:13.279Z,11.80
2022-10-15T21:34:41.566Z,10.70
2022-10-15T21:37:12.531Z,11.33
2022-10-15T21:39:40.183Z,10.47
2022-10-15T21:42:07.809Z,12.80
2022-10-15T21:44:35.430Z,12.13
2022-10-15T21:47:05.289Z,11.20
2022-10-15T21:49:32.976Z,10.63
2022-10-15T21:52:00.585Z,11.33
2022-10-15T21:54:28.414Z,11.07
2022-10-15T21:56:55.999Z,11.40
2022-10-15T21:59:23.551Z,11.17
2022-10-15T22:01:51.589Z,14.20
2022-10-15T22:04:20.760Z,10.20
2022-10-15T22:06:48.361Z,8.40
2022-10-15T22:09:15.950Z,7.90
2022-10-15T22:11:43.768Z,9.57
2022-10-15T22:14:13.218Z,14.40
2022-10-15T22:16:41.258Z,14.43
2022-10-15T22:19:09.647Z,10.77
2022-10-15T22:21:39.467Z,7.70
2022-10-15T22:24:08.993Z,9.73
2022-10-15T22:26:38.735Z,8.73
2022-10-15T22:29:07.878Z,7.27
2022-10-15T22:31:35.641Z,9.03
2022-10-15T22:34:03.463Z,7.80
2022-10-15T22:36:32.199Z,9.47
2022-10-15T22:39:03.485Z,6.73
2022-10-15T22:41:32.332Z,9.87
2022-10-15T22:44:00.501Z,9.97
2022-10-15T22:46:28.775Z,9.10
2022-10-15T22:48:56.360Z,9.77
2022-10-15T22:51:24.628Z,7.73
2022-10-15T22:53:55.572Z,9.77
2022-10-15T22:56:25.334Z,10.33
2022-10-15T22:58:53.120Z,10.80
2022-10-15T23:01:22.243Z,14.40
2022-10-15T23:03:52.938Z,11.50
2022-10-15T23:06:21.559Z,11.10
2022-10-15T23:08:50.069Z,10.07
2022-10-15T23:11:19.829Z,9.60
2022-10-15T23:13:49.560Z,11.60
2022-10-15T23:16:19.250Z,12.17
2022-10-15T23:18:48.727Z,13.50
2022-10-15T23:21:17.968Z,12.70
2022-10-15T23:23:46.441Z,9.57
2022-10-15T23:26:15.206Z,9.90
2022-10-15T23:28:43.282Z,11.47
2022-10-15T23:31:17.565Z,13.27
2022-10-15T23:33:45.157Z,9.87
2022-10-15T23:36:13.157Z,10.67
2022-10-15T23:38:40.852Z,9.57
2022-10-15T23:41:09.838Z,9.57
2022-10-15T23:43:38.055Z,14.70
2022-10-15T23:46:05.846Z,14.70
2022-10-15T23:48:34.737Z,10.13
2022-10-15T23:51:03.632Z,12.40
2022-10-15T23:53:32.652Z,9.13
2022-10-15T23:56:02.372Z,10.40
2022-10-15T23:58:29.965Z,11.73
